sensor_id;sensor_type;location;lat;lon;timestamp;P1;durP1;ratioP1;P2;durP2;ratioP2
3267;SDS011;1646;52.450;13.326;2022-12-24T00:01:55;12.33;;;7.50;;
3267;SDS011;1646;52.450;13.326;2022-12-24T00:06:54;13.60;;;7.50;;
3267;SDS011;1646;52.450;13.326;2022-12-24T00:11:52;11.57;;;7.20;;
3267;SDS011;1646;52.450;13.326;2022-12-24T00:16:50;11.40;;;8.10;;
3267;SDS011;1646;52.450;13.326;2022-12-24T00:21:48;11.13;;;7.27;;
3267;SDS011;1646;52.450;13.326;2022-12-24T00:26:48;11.53;;;6.33;;
3267;SDS011;1646;52.450;13.326;2022-12-24T00:31:47;8.80;;;6.50;;
3267;SDS011;1646;52.450;13.326;2022-12-24T00:36:45;10.80;;;6.80;;
3267;SDS011;1646;52.450;13.326;2022-12-24T00:41:43;8.63;;;5.40;;
3267;SDS011;1646;52.450;13.326;2022-12-24T00:46:42;9.27;;;6.20;;
3267;SDS011;1646;52.450;13.326;2022-12-24T00:51:41;9.07;;;5.27;;
3267;SDS011;1646;52.450;13.326;2022-12-24T00:56:39;7.87;;;5.50;;
3267;SDS011;1646;52.450;13.326;2022-12-24T01:01:37;9.00;;;6.03;;
3267;SDS011;1646;52.450;13.326;2022-12-24T01:06:36;8.50;;;5.87;;
3267;SDS011;1646;52.450;13.326;2022-12-24T01:11:34;11.53;;;5.87;;
3267;SDS011;1646;52.450;13.326;2022-12-24T01:16:32;10.40;;;5.90;;
3267;SDS011;1646;52.450;13.326;2022-12-24T01:21:31;8.27;;;5.30;;
3267;SDS011;1646;52.450;13.326;2022-12-24T01:26:30;7.40;;;5.73;;
3267;SDS011;1646;52.450;13.326;2022-12-24T01:31:28;6.90;;;5.30;;
3267;SDS011;1646;52.450;13.326;2022-12-24T01:36:26;10.37;;;5.53;;
3267;SDS011;1646;52.450;13.326;2022-12-24T01:41:24;7.33;;;5.67;;
3267;SDS011;1646;52.450;13.326;2022-12-24T01:46:41;7.20;;;5.47;;
3267;SDS011;1646;52.450;13.326;2022-12-24T01:51:40;7.73;;;5.50;;
3267;SDS011;1646;52.450;13.326;2022-12-24T01:56:43;8.50;;;5.87;;
3267;SDS011;1646;52.450;13.326;2022-12-24T02:01:46;8.97;;;5.90;;
3267;SDS011;1646;52.450;13.326;2022-12-24T02:06:46;6.70;;;5.30;;
3267;SDS011;1646;52.450;13.326;2022-12-24T02:11:44;9.33;;;5.77;;
3267;SDS011;1646;52.450;13.326;2022-12-24T02:16:47;7.37;;;5.83;;
3267;SDS011;1646;52.450;13.326;2022-12-24T02:21:54;8.73;;;6.40;;
3267;SDS011;1646;52.450;13.326;2022-12-24T02:27:07;9.37;;;6.13;;
3267;SDS011;1646;52.450;13.326;2022-12-24T02:32:21;10.50;;;7.33;;
3267;SDS011;1646;52.450;13.326;2022-12-24T02:37:23;11.53;;;6.67;;
3267;SDS011;1646;52.450;13.326;2022-12-24T02:42:24;11.00;;;7.40;;
3267;SDS011;1646;52.450;13.326;2022-12-24T02:47:27;9.40;;;7.03;;
3267;SDS011;1646;52.450;13.326;2022-12-24T02:52:30;11.17;;;7.30;;
3267;SDS011;1646;52.450;13.326;2022-12-24T02:57:32;11.93;;;7.93;;
3267;SDS011;1646;52.450;13.326;2022-12-24T03:02:45;11.47;;;7.50;;
3267;SDS011;1646;52.450;13.326;2022-12-24T03:07:55;10.70;;;8.00;;
3267;SDS011;1646;52.450;13.326;2022-12-24T03:12:59;15.50;;;8.87;;
3267;SDS011;1646;52.450;13.326;2022-12-24T03:18:03;10.97;;;7.23;;
3267;SDS011;1646;52.450;13.326;2022-12-24T03:23:03;11.57;;;7.43;;
3267;SDS011;1646;52.450;13.326;2022-12-24T03:28:02;13.37;;;8.60;;
3267;SDS011;1646;52.450;13.326;2022-12-24T03:33:04;13.27;;;8.80;;
3267;SDS011;1646;52.450;13.326;2022-12-24T03:38:02;10.87;;;8.33;;
3267;SDS011;1646;52.450;13.326;2022-12-24T03:43:00;11.83;;;7.83;;
3267;SDS011;1646;52.450;13.326;2022-12-24T03:47:58;11.27;;;8.00;;
3267;SDS011;1646;52.450;13.326;2022-12-24T03:52:58;9.50;;;7.53;;
3267;SDS011;1646;52.450;13.326;2022-12-24T03:57:56;11.20;;;8.17;;
3267;SDS011;1646;52.450;13.326;2022-12-24T04:02:54;14.10;;;9.20;;
3267;SDS011;1646;52.450;13.326;2022-12-24T04:07:52;15.03;;;9.33;;
3267;SDS011;1646;52.450;13.326;2022-12-24T04:12:51;14.13;;;8.93;;
3267;SDS011;1646;52.450;13.326;2022-12-24T04:17:49;14.17;;;8.17;;
3267;SDS011;1646;52.450;13.326;2022-12-24T04:22:47;13.80;;;9.77;;
3267;SDS011;1646;52.450;13.326;2022-12-24T04:27:45;14.57;;;8.53;;
3267;SDS011;1646;52.450;13.326;2022-12-24T04:32:45;12.67;;;8.30;;
3267;SDS011;1646;52.450;13.326;2022-12-24T04:37:43;22.90;;;9.00;;
3267;SDS011;1646;52.450;13.326;2022-12-24T04:42:41;15.33;;;8.80;;
3267;SDS011;1646;52.450;13.326;2022-12-24T04:47:39;15.50;;;10.43;;
3267;SDS011;1646;52.450;13.326;2022-12-24T04:52:38;14.87;;;9.20;;
3267;SDS011;1646;52.450;13.326;2022-12-24T04:57:36;16.03;;;9.60;;
3267;SDS011;1646;52.450;13.326;2022-12-24T05:02:34;14.53;;;9.50;;
3267;SDS011;1646;52.450;13.326;2022-12-24T05:07:33;14.97;;;9.40;;
3267;SDS011;1646;52.450;13.326;2022-12-24T05:12:32;14.43;;;8.87;;
3267;SDS011;1646;52.450;13.326;2022-12-24T05:17:30;14.50;;;9.10;;
3267;SDS011;1646;52.450;13.326;2022-12-24T05:22:28;17.90;;;10.57;;
3267;SDS011;1646;52.450;13.326;2022-12-24T05:27:45;16.20;;;9.87;;
3267;SDS011;1646;52.450;13.326;2022-12-24T05:32:46;17.37;;;10.20;;
3267;SDS011;1646;52.450;13.326;2022-12-24T05:37:45;21.40;;;10.83;;
3267;SDS011;1646;52.450;13.326;2022-12-24T05:42:43;16.33;;;10.07;;
3267;SDS011;1646;52.450;13.326;2022-12-24T05:47:42;16.63;;;10.20;;
3267;SDS011;1646;52.450;13.326;2022-12-24T05:52:40;17.50;;;9.47;;
3267;SDS011;1646;52.450;13.326;2022-12-24T05:57:38;16.57;;;10.70;;
3267;SDS011;1646;52.450;13.326;2022-12-24T06:02:37;18.30;;;10.07;;
3267;SDS011;1646;52.450;13.326;2022-12-24T06:07:36;19.20;;;11.50;;
3267;SDS011;1646;52.450;13.326;2022-12-24T06:12:35;19.67;;;11.00;;
3267;SDS011;1646;52.450;13.326;2022-12-24T06:17:33;18.93;;;10.80;;
3267;SDS011;1646;52.450;13.326;2022-12-24T06:22:31;19.50;;;10.63;;
3267;SDS011;1646;52.450;13.326;2022-12-24T06:27:30;19.23;;;10.70;;
3267;SDS011;1646;52.450;13.326;2022-12-24T06:32:28;17.50;;;9.90;;
3267;SDS011;1646;52.450;13.326;2022-12-24T06:37:26;20.17;;;11.13;;
3267;SDS011;1646;52.450;13.326;2022-12-24T06:42:24;19.93;;;10.90;;
3267;SDS011;1646;52.450;13.326;2022-12-24T06:47:24;20.53;;;10.50;;
3267;SDS011;1646;52.450;13.326;2022-12-24T06:52:22;18.80;;;10.87;;
3267;SDS011;1646;52.450;13.326;2022-12-24T06:57:20;18.53;;;10.60;;
3267;SDS011;1646;52.450;13.326;2022-12-24T07:02:18;16.30;;;9.70;;
3267;SDS011;1646;52.450;13.326;2022-12-24T07:07:17;19.47;;;11.10;;
3267;SDS011;1646;52.450;13.326;2022-12-24T07:12:15;19.73;;;10.60;;
3267;SDS011;1646;52.450;13.326;2022-12-24T07:17:13;19.60;;;10.67;;
3267;SDS011;1646;52.450;13.326;2022-12-24T07:22:12;25.90;;;12.17;;
3267;SDS011;1646;52.450;13.326;2022-12-24T07:27:12;16.80;;;10.00;;
3267;SDS011;1646;52.450;13.326;2022-12-24T07:32:11;17.17;;;9.83;;
3267;SDS011;1646;52.450;13.326;2022-12-24T07:37:09;17.67;;;10.40;;
3267;SDS011;1646;52.450;13.326;2022-12-24T07:42:07;15.83;;;10.17;;
3267;SDS011;1646;52.450;13.326;2022-12-24T07:47:06;16.50;;;9.50;;
3267;SDS011;1646;52.450;13.326;2022-12-24T07:52:04;22.00;;;11.43;;
3267;SDS011;1646;52.450;13.326;2022-12-24T07:57:02;20.47;;;10.70;;
3267;SDS011;1646;52.450;13.326;2022-12-24T08:02:00;19.20;;;10.33;;
3267;SDS011;1646;52.450;13.326;2022-12-24T08:07:00;19.60;;;10.70;;
3267;SDS011;1646;52.450;13.326;2022-12-24T08:11:58;20.27;;;10.00;;
3267;SDS011;1646;52.450;13.326;2022-12-24T08:16:57;25.00;;;10.80;;
3267;SDS011;1646;52.450;13.326;2022-12-24T08:21:55;19.67;;;10.63;;
3267;SDS011;1646;52.450;13.326;2022-12-24T08:26:55;20.00;;;11.17;;
3267;SDS011;1646;52.450;13.326;2022-12-24T08:31:53;29.33;;;12.63;;
3267;SDS011;1646;52.450;13.326;2022-12-24T08:36:51;25.57;;;12.50;;
3267;SDS011;1646;52.450;13.326;2022-12-24T08:41:49;19.20;;;11.03;;
3267;SDS011;1646;52.450;13.326;2022-12-24T08:46:48;21.80;;;11.67;;
3267;SDS011;1646;52.450;13.326;2022-12-24T08:51:46;22.53;;;11.47;;
3267;SDS011;1646;52.450;13.326;2022-12-24T08:56:44;26.10;;;12.50;;
3267;SDS011;1646;52.450;13.326;2022-12-24T09:01:42;24.13;;;9.87;;
3267;SDS011;1646;52.450;13.326;2022-12-24T09:06:42;18.10;;;10.10;;
3267;SDS011;1646;52.450;13.326;2022-12-24T09:11:40;17.23;;;10.13;;
3267;SDS011;1646;52.450;13.326;2022-12-24T09:16:38;20.90;;;11.30;;
3267;SDS011;1646;52.450;13.326;2022-12-24T09:21:36;20.77;;;10.50;;
3267;SDS011;1646;52.450;13.326;2022-12-24T09:26:36;21.63;;;11.53;;
3267;SDS011;1646;52.450;13.326;2022-12-24T09:31:36;20.87;;;11.60;;
3267;SDS011;1646;52.450;13.326;2022-12-24T09:36:35;26.33;;;12.57;;
3267;SDS011;1646;52.450;13.326;2022-12-24T09:41:39;21.13;;;10.90;;
3267;SDS011;1646;52.450;13.326;2022-12-24T09:46:42;21.90;;;11.13;;
3267;SDS011;1646;52.450;13.326;2022-12-24T09:51:45;19.73;;;11.07;;
3267;SDS011;1646;52.450;13.326;2022-12-24T09:56:48;18.00;;;9.77;;
3267;SDS011;1646;52.450;13.326;2022-12-24T10:01:47;17.53;;;10.77;;
3267;SDS011;1646;52.450;13.326;2022-12-24T10:06:48;16.40;;;10.00;;
3267;SDS011;1646;52.450;13.326;2022-12-24T10:11:53;16.80;;;10.10;;
3267;SDS011;1646;52.450;13.326;2022-12-24T10:16:59;15.83;;;8.77;;
3267;SDS011;1646;52.450;13.326;2022-12-24T10:22:14;14.43;;;9.77;;
3267;SDS011;1646;52.450;13.326;2022-12-24T10:27:20;13.63;;;8.87;;
3267;SDS011;1646;52.450;13.326;2022-12-24T10:32:21;13.63;;;8.77;;
3267;SDS011;1646;52.450;13.326;2022-12-24T10:37:23;11.60;;;8.00;;
3267;SDS011;1646;52.450;13.326;2022-12-24T10:42:26;10.57;;;7.60;;
3267;SDS011;1646;52.450;13.326;2022-12-24T10:47:32;9.10;;;6.87;;
3267;SDS011;1646;52.450;13.326;2022-12-24T10:52:34;7.70;;;6.10;;
3267;SDS011;1646;52.450;13.326;2022-12-24T10:57:38;8.40;;;5.50;;
3267;SDS011;1646;52.450;13.326;2022-12-24T11:02:38;5.53;;;4.93;;
3267;SDS011;1646;52.450;13.326;2022-12-24T11:07:36;7.40;;;5.10;;
3267;SDS011;1646;52.450;13.326;2022-12-24T11:12:34;7.90;;;4.90;;
3267;SDS011;1646;52.450;13.326;2022-12-24T11:17:38;6.13;;;5.13;;
3267;SDS011;1646;52.450;13.326;2022-12-24T11:22:37;4.77;;;4.13;;
3267;SDS011;1646;52.450;13.326;2022-12-24T11:27:41;5.00;;;4.27;;
3267;SDS011;1646;52.450;13.326;2022-12-24T11:32:45;4.17;;;3.77;;
3267;SDS011;1646;52.450;13.326;2022-12-24T11:37:44;3.83;;;3.50;;
3267;SDS011;1646;52.450;13.326;2022-12-24T11:42:43;4.30;;;3.90;;
3267;SDS011;1646;52.450;13.326;2022-12-24T11:47:42;4.03;;;3.63;;
3267;SDS011;1646;52.450;13.326;2022-12-24T11:52:40;4.80;;;4.40;;
3267;SDS011;1646;52.450;13.326;2022-12-24T11:57:41;4.63;;;4.23;;
3267;SDS011;1646;52.450;13.326;2022-12-24T12:02:47;5.27;;;4.77;;
3267;SDS011;1646;52.450;13.326;2022-12-24T12:07:49;10.37;;;5.33;;
3267;SDS011;1646;52.450;13.326;2022-12-24T12:12:53;7.83;;;5.50;;
3267;SDS011;1646;52.450;13.326;2022-12-24T12:18:00;7.20;;;5.17;;
3267;SDS011;1646;52.450;13.326;2022-12-24T12:23:04;16.37;;;7.50;;
3267;SDS011;1646;52.450;13.326;2022-12-24T12:28:12;8.20;;;5.57;;
3267;SDS011;1646;52.450;13.326;2022-12-24T12:33:17;7.50;;;4.57;;
3267;SDS011;1646;52.450;13.326;2022-12-24T12:38:20;5.60;;;4.60;;
3267;SDS011;1646;52.450;13.326;2022-12-24T12:43:24;8.33;;;4.93;;
3267;SDS011;1646;52.450;13.326;2022-12-24T12:48:42;9.10;;;4.73;;
3267;SDS011;1646;52.450;13.326;2022-12-24T12:54:04;9.20;;;4.00;;
3267;SDS011;1646;52.450;13.326;2022-12-24T12:59:15;7.17;;;3.97;;
3267;SDS011;1646;52.450;13.326;2022-12-24T13:04:25;7.70;;;3.80;;
3267;SDS011;1646;52.450;13.326;2022-12-24T13:09:54;10.37;;;4.37;;
3267;SDS011;1646;52.450;13.326;2022-12-24T13:20:35;13.20;;;5.23;;
3267;SDS011;1646;52.450;13.326;2022-12-24T13:25:38;7.77;;;3.50;;
3267;SDS011;1646;52.450;13.326;2022-12-24T13:30:40;9.63;;;3.57;;
3267;SDS011;1646;52.450;13.326;2022-12-24T13:40:55;19.03;;;4.43;;
3267;SDS011;1646;52.450;13.326;2022-12-24T13:46:46;16.77;;;4.80;;
3267;SDS011;1646;52.450;13.326;2022-12-24T13:52:03;11.30;;;4.67;;
3267;SDS011;1646;52.450;13.326;2022-12-24T13:57:24;13.10;;;4.87;;
3267;SDS011;1646;52.450;13.326;2022-12-24T14:02:30;12.57;;;4.13;;
3267;SDS011;1646;52.450;13.326;2022-12-24T14:07:31;10.27;;;4.50;;
3267;SDS011;1646;52.450;13.326;2022-12-24T14:12:33;22.63;;;5.97;;
3267;SDS011;1646;52.450;13.326;2022-12-24T14:17:45;22.87;;;5.80;;
3267;SDS011;1646;52.450;13.326;2022-12-24T14:22:44;18.37;;;4.93;;
3267;SDS011;1646;52.450;13.326;2022-12-24T14:27:44;25.10;;;5.20;;
3267;SDS011;1646;52.450;13.326;2022-12-24T14:32:45;22.13;;;5.53;;
3267;SDS011;1646;52.450;13.326;2022-12-24T14:37:46;20.30;;;5.07;;
3267;SDS011;1646;52.450;13.326;2022-12-24T14:42:48;17.80;;;7.00;;
3267;SDS011;1646;52.450;13.326;2022-12-24T14:47:54;16.93;;;6.47;;
3267;SDS011;1646;52.450;13.326;2022-12-24T14:53:02;21.43;;;6.17;;
3267;SDS011;1646;52.450;13.326;2022-12-24T14:58:24;22.03;;;5.47;;
3267;SDS011;1646;52.450;13.326;2022-12-24T15:03:26;17.97;;;8.70;;
3267;SDS011;1646;52.450;13.326;2022-12-24T15:08:29;21.67;;;9.40;;
3267;SDS011;1646;52.450;13.326;2022-12-24T15:13:31;25.83;;;8.43;;
3267;SDS011;1646;52.450;13.326;2022-12-24T15:18:34;18.10;;;8.10;;
3267;SDS011;1646;52.450;13.326;2022-12-24T15:23:35;23.90;;;8.77;;
3267;SDS011;1646;52.450;13.326;2022-12-24T15:28:34;30.30;;;9.30;;
3267;SDS011;1646;52.450;13.326;2022-12-24T15:33:36;18.83;;;8.23;;
3267;SDS011;1646;52.450;13.326;2022-12-24T15:38:35;22.90;;;10.33;;
3267;SDS011;1646;52.450;13.326;2022-12-24T15:43:37;33.77;;;9.83;;
3267;SDS011;1646;52.450;13.326;2022-12-24T15:48:37;20.33;;;9.60;;
3267;SDS011;1646;52.450;13.326;2022-12-24T15:53:40;33.90;;;10.50;;
3267;SDS011;1646;52.450;13.326;2022-12-24T15:58:41;18.70;;;8.10;;
3267;SDS011;1646;52.450;13.326;2022-12-24T16:03:52;31.67;;;9.70;;
3267;SDS011;1646;52.450;13.326;2022-12-24T16:08:52;32.30;;;10.50;;
3267;SDS011;1646;52.450;13.326;2022-12-24T16:13:57;23.37;;;8.97;;
3267;SDS011;1646;52.450;13.326;2022-12-24T16:18:59;21.57;;;8.70;;
3267;SDS011;1646;52.450;13.326;2022-12-24T16:24:02;21.77;;;8.50;;
3267;SDS011;1646;52.450;13.326;2022-12-24T16:29:02;25.93;;;9.60;;
3267;SDS011;1646;52.450;13.326;2022-12-24T16:34:02;17.40;;;8.67;;
3267;SDS011;1646;52.450;13.326;2022-12-24T16:39:00;22.40;;;9.07;;
3267;SDS011;1646;52.450;13.326;2022-12-24T16:44:16;29.53;;;10.80;;
3267;SDS011;1646;52.450;13.326;2022-12-24T16:49:16;28.70;;;10.57;;
3267;SDS011;1646;52.450;13.326;2022-12-24T16:54:16;36.83;;;12.83;;
3267;SDS011;1646;52.450;13.326;2022-12-24T16:59:15;36.73;;;11.60;;
3267;SDS011;1646;52.450;13.326;2022-12-24T17:04:16;24.23;;;11.23;;
3267;SDS011;1646;52.450;13.326;2022-12-24T17:09:14;29.93;;;12.93;;
3267;SDS011;1646;52.450;13.326;2022-12-24T17:14:13;23.00;;;10.70;;
3267;SDS011;1646;52.450;13.326;2022-12-24T17:19:17;25.97;;;9.80;;
3267;SDS011;1646;52.450;13.326;2022-12-24T17:24:15;23.00;;;10.93;;
3267;SDS011;1646;52.450;13.326;2022-12-24T17:29:13;19.83;;;11.00;;
3267;SDS011;1646;52.450;13.326;2022-12-24T17:34:11;28.77;;;10.50;;
3267;SDS011;1646;52.450;13.326;2022-12-24T17:39:11;26.07;;;11.40;;
3267;SDS011;1646;52.450;13.326;2022-12-24T17:44:09;18.53;;;10.43;;
3267;SDS011;1646;52.450;13.326;2022-12-24T17:49:09;21.37;;;9.97;;
3267;SDS011;1646;52.450;13.326;2022-12-24T17:54:10;16.00;;;9.70;;
3267;SDS011;1646;52.450;13.326;2022-12-24T17:59:08;30.40;;;13.87;;
3267;SDS011;1646;52.450;13.326;2022-12-24T18:04:06;27.07;;;11.73;;
3267;SDS011;1646;52.450;13.326;2022-12-24T18:09:04;28.97;;;11.77;;
3267;SDS011;1646;52.450;13.326;2022-12-24T18:14:04;21.40;;;10.50;;
3267;SDS011;1646;52.450;13.326;2022-12-24T18:19:03;25.30;;;13.00;;
3267;SDS011;1646;52.450;13.326;2022-12-24T18:24:03;22.10;;;11.67;;
3267;SDS011;1646;52.450;13.326;2022-12-24T18:29:03;23.87;;;11.37;;
3267;SDS011;1646;52.450;13.326;2022-12-24T18:34:04;17.10;;;9.70;;
3267;SDS011;1646;52.450;13.326;2022-12-24T18:39:04;22.50;;;10.40;;
3267;SDS011;1646;52.450;13.326;2022-12-24T18:44:04;20.60;;;10.00;;
3267;SDS011;1646;52.450;13.326;2022-12-24T18:49:02;19.30;;;10.57;;
3267;SDS011;1646;52.450;13.326;2022-12-24T18:54:00;25.10;;;13.70;;
3267;SDS011;1646;52.450;13.326;2022-12-24T18:58:59;15.60;;;7.90;;
3267;SDS011;1646;52.450;13.326;2022-12-24T19:04:00;14.47;;;8.33;;
3267;SDS011;1646;52.450;13.326;2022-12-24T19:08:58;13.33;;;8.60;;
3267;SDS011;1646;52.450;13.326;2022-12-24T19:13:57;17.90;;;8.80;;
3267;SDS011;1646;52.450;13.326;2022-12-24T19:18:56;15.10;;;8.10;;
3267;SDS011;1646;52.450;13.326;2022-12-24T19:23:56;12.77;;;7.77;;
3267;SDS011;1646;52.450;13.326;2022-12-24T19:28:57;20.90;;;10.87;;
3267;SDS011;1646;52.450;13.326;2022-12-24T19:33:55;11.40;;;7.80;;
3267;SDS011;1646;52.450;13.326;2022-12-24T19:38:54;15.43;;;8.10;;
3267;SDS011;1646;52.450;13.326;2022-12-24T19:43:54;10.43;;;7.20;;
3267;SDS011;1646;52.450;13.326;2022-12-24T19:48:53;13.80;;;7.40;;
3267;SDS011;1646;52.450;13.326;2022-12-24T19:53:53;9.50;;;6.23;;
3267;SDS011;1646;52.450;13.326;2022-12-24T19:58:53;11.87;;;6.60;;
3267;SDS011;1646;52.450;13.326;2022-12-24T20:03:52;13.17;;;7.10;;
3267;SDS011;1646;52.450;13.326;2022-12-24T20:08:51;12.37;;;6.90;;
3267;SDS011;1646;52.450;13.326;2022-12-24T20:13:49;10.40;;;6.33;;
3267;SDS011;1646;52.450;13.326;2022-12-24T20:18:53;10.77;;;7.27;;
3267;SDS011;1646;52.450;13.326;2022-12-24T20:23:52;13.60;;;7.03;;
3267;SDS011;1646;52.450;13.326;2022-12-24T20:28:50;12.10;;;6.73;;
3267;SDS011;1646;52.450;13.326;2022-12-24T20:33:48;8.00;;;6.10;;
3267;SDS011;1646;52.450;13.326;2022-12-24T20:38:49;8.93;;;5.57;;
3267;SDS011;1646;52.450;13.326;2022-12-24T20:43:47;12.03;;;6.00;;
3267;SDS011;1646;52.450;13.326;2022-12-24T20:48:46;11.80;;;6.80;;
3267;SDS011;1646;52.450;13.326;2022-12-24T20:53:44;7.27;;;4.40;;
3267;SDS011;1646;52.450;13.326;2022-12-24T20:58:44;8.40;;;5.83;;
3267;SDS011;1646;52.450;13.326;2022-12-24T21:03:42;5.20;;;4.70;;
3267;SDS011;1646;52.450;13.326;2022-12-24T21:08:40;6.53;;;4.93;;
3267;SDS011;1646;52.450;13.326;2022-12-24T21:13:39;14.07;;;6.00;;
3267;SDS011;1646;52.450;13.326;2022-12-24T21:18:39;6.30;;;4.57;;
3267;SDS011;1646;52.450;13.326;2022-12-24T21:23:37;6.37;;;4.90;;
3267;SDS011;1646;52.450;13.326;2022-12-24T21:28:36;7.47;;;4.70;;
3267;SDS011;1646;52.450;13.326;2022-12-24T21:33:34;13.70;;;4.87;;
3267;SDS011;1646;52.450;13.326;2022-12-24T21:38:35;7.43;;;4.77;;
3267;SDS011;1646;52.450;13.326;2022-12-24T21:43:34;6.87;;;4.17;;
3267;SDS011;1646;52.450;13.326;2022-12-24T21:48:32;8.50;;;4.43;;
3267;SDS011;1646;52.450;13.326;2022-12-24T21:53:49;11.63;;;4.50;;
3267;SDS011;1646;52.450;13.326;2022-12-24T21:59:05;8.37;;;4.17;;
3267;SDS011;1646;52.450;13.326;2022-12-24T22:04:03;11.20;;;5.03;;
3267;SDS011;1646;52.450;13.326;2022-12-24T22:09:02;8.60;;;4.63;;
3267;SDS011;1646;52.450;13.326;2022-12-24T22:14:18;12.13;;;5.83;;
3267;SDS011;1646;52.450;13.326;2022-12-24T22:19:16;7.20;;;4.87;;
3267;SDS011;1646;52.450;13.326;2022-12-24T22:24:15;9.30;;;5.83;;
3267;SDS011;1646;52.450;13.326;2022-12-24T22:29:13;8.23;;;5.30;;
3267;SDS011;1646;52.450;13.326;2022-12-24T22:34:11;14.53;;;6.20;;
3267;SDS011;1646;52.450;13.326;2022-12-24T22:39:10;11.10;;;6.63;;
3267;SDS011;1646;52.450;13.326;2022-12-24T22:44:10;18.10;;;6.17;;
3267;SDS011;1646;52.450;13.326;2022-12-24T22:49:08;15.33;;;6.77;;
3267;SDS011;1646;52.450;13.326;2022-12-24T22:54:07;14.40;;;7.10;;
3267;SDS011;1646;52.450;13.326;2022-12-24T22:59:05;10.70;;;5.83;;
3267;SDS011;1646;52.450;13.326;2022-12-24T23:04:05;13.83;;;5.80;;
3267;SDS011;1646;52.450;13.326;2022-12-24T23:09:04;10.80;;;6.90;;
3267;SDS011;1646;52.450;13.326;2022-12-24T23:14:04;10.73;;;6.60;;
3267;SDS011;1646;52.450;13.326;2022-12-24T23:19:21;15.23;;;6.27;;
3267;SDS011;1646;52.450;13.326;2022-12-24T23:24:19;13.50;;;5.87;;
3267;SDS011;1646;52.450;13.326;2022-12-24T23:29:17;18.23;;;6.23;;
3267;SDS011;1646;52.450;13.326;2022-12-24T23:34:15;11.50;;;6.47;;
3267;SDS011;1646;52.450;13.326;2022-12-24T23:39:15;14.27;;;7.27;;
3267;SDS011;1646;52.450;13.326;2022-12-24T23:44:13;16.43;;;7.30;;
3267;SDS011;1646;52.450;13.326;2022-12-24T23:49:11;17.43;;;7.00;;
3267;SDS011;1646;52.450;13.326;2022-12-24T23:54:10;13.43;;;7.17;;
3267;SDS011;1646;52.450;13.326;2022-12-24T23:59:10;15.30;;;6.87;;
